MMVA

Carlos Rovirosa Pérez International Airport

Airport
ICAO code
MMVA
IATA Code
VSA
Summary
ICAO Region
CARSAM
ICAO Territory
Location

Dos Montes, Tabasco

Serving
Villahermosa
Elevation
46 ft
Coordinates
17° 59' 49" N , 92° 49' 2" W
KCC
Metar
MMVA 131843Z 30009KT 3SM HZ SCT017 BKN070 34/25 A2981 RMK 8/110

Carlos Rovirosa Pérez International Airport or Villahermosa International Airport is an international airport serving Villahermosa, the capital of the Mexican state of Tabasco.

Climatology

Tropical monsoon climate (Köppen climate classification Am)

Runways

Designator Length Width Surface Rops
8/26 2200 45 ASP No/No

Airport map

Aerial View

SKYbrary Partners:

Safety knowledge contributed by: